createdAt,value
2019-04-10T00:00:23.875Z,10.72
2019-04-10T00:01:23.867Z,10.72
2019-04-10T00:02:23.876Z,10.65
2019-04-10T00:03:32.320Z,10.72
2019-04-10T00:04:23.844Z,10.70
2019-04-10T00:05:23.834Z,10.70
2019-04-10T00:06:23.822Z,10.68
2019-04-10T00:07:23.816Z,10.68
2019-04-10T00:08:23.812Z,10.70
2019-04-10T00:09:23.803Z,10.66
2019-04-10T00:10:23.796Z,10.66
2019-04-10T00:11:24.837Z,10.52
2019-04-10T00:12:23.777Z,10.52
2019-04-10T00:13:24.698Z,10.52
2019-04-10T00:14:24.050Z,10.49
2019-04-10T00:15:24.328Z,10.47
2019-04-10T00:16:24.493Z,10.44
2019-04-10T00:17:23.737Z,10.49
2019-04-10T00:18:24.162Z,10.49
2019-04-10T00:19:23.723Z,10.49
2019-04-10T00:20:24.588Z,10.47
2019-04-10T00:21:23.701Z,10.32
2019-04-10T00:22:24.326Z,10.34
2019-04-10T00:23:24.758Z,10.35
2019-04-10T00:24:23.982Z,10.38
2019-04-10T00:25:24.438Z,10.36
2019-04-10T00:26:23.802Z,10.35
2019-04-10T00:27:23.651Z,10.25
2019-04-10T00:28:23.647Z,10.22
2019-04-10T00:29:24.545Z,10.25
2019-04-10T00:30:23.630Z,10.34
2019-04-10T00:31:24.329Z,10.22
2019-04-10T00:32:23.805Z,10.26
2019-04-10T00:33:23.599Z,10.22
2019-04-10T00:34:23.594Z,10.22
2019-04-10T00:35:23.672Z,10.20
2019-04-10T00:36:24.689Z,10.17
2019-04-10T00:37:27.148Z,10.17
2019-04-10T00:38:24.088Z,10.24
2019-04-10T00:39:23.549Z,10.13
2019-04-10T00:40:23.694Z,10.17
2019-04-10T00:41:23.987Z,10.14
2019-04-10T00:42:23.532Z,10.20
2019-04-10T00:43:24.514Z,10.14
2019-04-10T00:44:23.809Z,10.10
2019-04-10T00:45:23.496Z,10.16
2019-04-10T00:46:24.292Z,10.11
2019-04-10T00:47:23.480Z,10.13
2019-04-10T00:48:23.964Z,10.07
2019-04-10T00:49:23.966Z,10.07
2019-04-10T00:50:23.472Z,9.98
2019-04-10T00:51:23.565Z,10.09
2019-04-10T00:52:24.064Z,9.95
2019-04-10T00:53:23.430Z,9.93
2019-04-10T00:54:23.706Z,9.98
2019-04-10T00:55:23.769Z,9.95
2019-04-10T00:56:24.285Z,9.98
2019-04-10T00:57:23.630Z,9.98
2019-04-10T00:58:23.386Z,10.02
2019-04-10T00:59:24.142Z,10.01
2019-04-10T01:00:23.666Z,9.96
2019-04-10T01:01:23.644Z,9.99
2019-04-10T01:02:23.355Z,9.92
2019-04-10T01:03:23.627Z,9.98
2019-04-10T01:04:24.449Z,9.92
2019-04-10T01:05:23.325Z,9.93
2019-04-10T01:06:24.088Z,9.88
2019-04-10T01:07:33.759Z,9.89
2019-04-10T01:08:23.306Z,9.86
2019-04-10T01:09:23.646Z,9.85
2019-04-10T01:10:23.286Z,9.81
2019-04-10T01:11:23.276Z,9.86
2019-04-10T01:12:23.661Z,9.85
2019-04-10T01:13:23.263Z,9.80
2019-04-10T01:14:23.453Z,9.77
2019-04-10T01:15:23.248Z,9.77
2019-04-10T01:16:23.250Z,9.80
2019-04-10T01:17:24.060Z,9.77
2019-04-10T01:18:23.433Z,9.78
2019-04-10T01:19:23.842Z,9.73
2019-04-10T01:20:23.810Z,9.83
2019-04-10T01:21:23.212Z,9.78
2019-04-10T01:22:24.040Z,9.71
2019-04-10T01:23:23.180Z,9.73
2019-04-10T01:24:23.755Z,9.73
2019-04-10T01:25:24.133Z,9.71
2019-04-10T01:26:23.400Z,9.65
2019-04-10T01:27:23.639Z,9.65
2019-04-10T01:28:23.128Z,9.67
2019-04-10T01:29:23.120Z,9.62
2019-04-10T01:30:24.292Z,9.68
2019-04-10T01:31:23.304Z,9.63
2019-04-10T01:32:23.776Z,9.63
2019-04-10T01:33:23.095Z,9.58
2019-04-10T01:34:23.316Z,9.63
2019-04-10T01:35:23.074Z,9.55
2019-04-10T01:36:23.062Z,9.62
2019-04-10T01:37:23.051Z,9.59
2019-04-10T01:38:23.039Z,9.63
2019-04-10T01:39:23.032Z,9.50
2019-04-10T01:40:23.372Z,9.49
2019-04-10T01:41:23.795Z,9.52
2019-04-10T01:42:23.005Z,9.53
2019-04-10T01:43:22.997Z,9.50
2019-04-10T01:44:22.993Z,9.50
2019-04-10T01:45:22.982Z,9.50
2019-04-10T01:46:22.977Z,9.59
2019-04-10T01:47:23.434Z,9.52
2019-04-10T01:48:23.827Z,9.52
2019-04-10T01:49:23.847Z,9.44
2019-04-10T01:50:22.939Z,9.53
2019-04-10T01:51:23.410Z,9.49
2019-04-10T01:52:22.924Z,9.44
2019-04-10T01:53:23.800Z,9.48
2019-04-10T01:54:22.904Z,9.44
2019-04-10T01:55:25.814Z,9.41
2019-04-10T01:56:31.147Z,9.52
2019-04-10T01:57:22.875Z,9.49
2019-04-10T01:58:23.203Z,9.49
2019-04-10T01:59:23.598Z,9.41
2019-04-10T02:00:23.698Z,9.40
2019-04-10T02:01:22.837Z,9.44
2019-04-10T02:02:23.184Z,9.44
2019-04-10T02:03:22.833Z,9.41
2019-04-10T02:04:22.887Z,9.40
2019-04-10T02:05:22.941Z,9.35
2019-04-10T02:06:22.800Z,9.32
2019-04-10T02:07:23.127Z,9.34
2019-04-10T02:08:23.639Z,9.30
2019-04-10T02:09:23.444Z,9.30
2019-04-10T02:10:23.778Z,9.30
2019-04-10T02:11:23.875Z,9.31
2019-04-10T02:12:22.885Z,9.26
2019-04-10T02:13:23.364Z,9.34
2019-04-10T02:14:22.722Z,9.23
2019-04-10T02:15:22.816Z,9.16
2019-04-10T02:16:22.910Z,9.20
2019-04-10T02:17:22.701Z,9.13
2019-04-10T02:18:23.486Z,9.23
2019-04-10T02:19:22.685Z,9.10
2019-04-10T02:20:22.980Z,9.10
2019-04-10T02:21:23.435Z,9.13
2019-04-10T02:22:22.656Z,9.08
2019-04-10T02:23:22.659Z,9.01
2019-04-10T02:24:22.966Z,9.06
2019-04-10T02:25:22.625Z,9.04
2019-04-10T02:26:22.618Z,8.96
2019-04-10T02:27:22.607Z,9.03
2019-04-10T02:28:22.785Z,8.91
2019-04-10T02:29:22.598Z,9.00
2019-04-10T02:30:24.032Z,8.86
2019-04-10T02:31:24.121Z,8.94
2019-04-10T02:32:24.111Z,8.89
2019-04-10T02:33:23.225Z,8.91
2019-04-10T02:34:23.236Z,8.91
2019-04-10T02:35:24.484Z,8.80
2019-04-10T02:36:23.531Z,8.85
2019-04-10T02:37:22.994Z,8.79
2019-04-10T02:38:38.683Z,8.86
2019-04-10T02:39:29.822Z,8.86
2019-04-10T02:40:23.570Z,8.86
2019-04-10T02:41:22.495Z,8.75
2019-04-10T02:42:22.662Z,8.80
2019-04-10T02:43:23.308Z,8.79
2019-04-10T02:44:23.033Z,8.73
2019-04-10T02:45:23.786Z,8.79
2019-04-10T02:46:22.442Z,8.78
2019-04-10T02:47:23.040Z,8.70
2019-04-10T02:48:23.464Z,8.71
2019-04-10T02:49:22.618Z,8.71
2019-04-10T02:50:22.632Z,8.68
2019-04-10T02:51:23.611Z,8.65
2019-04-10T02:52:22.768Z,8.63
2019-04-10T02:53:23.342Z,8.60
2019-04-10T02:54:22.365Z,8.55
2019-04-10T02:55:22.925Z,8.52
2019-04-10T02:56:23.733Z,8.57
2019-04-10T02:57:22.335Z,8.49
2019-04-10T02:58:22.364Z,8.55
2019-04-10T02:59:23.354Z,8.49
2019-04-10T03:00:22.906Z,8.54
2019-04-10T03:01:23.475Z,8.52
2019-04-10T03:02:22.286Z,8.47
2019-04-10T03:03:22.472Z,8.37
2019-04-10T03:04:22.271Z,8.40
2019-04-10T03:05:24.859Z,8.46
2019-04-10T03:06:22.858Z,8.39
2019-04-10T03:07:23.873Z,8.43
2019-04-10T03:08:38.230Z,8.40
2019-04-10T03:09:37.014Z,8.45
2019-04-10T03:10:31.618Z,8.43
2019-04-10T03:11:23.759Z,8.32
2019-04-10T03:12:23.672Z,8.36
2019-04-10T03:13:23.793Z,8.31
2019-04-10T03:14:22.175Z,8.28
2019-04-10T03:15:23.204Z,8.32
2019-04-10T03:16:22.154Z,8.32
2019-04-10T03:17:22.142Z,8.25
2019-04-10T03:18:22.981Z,8.24
2019-04-10T03:19:22.319Z,8.27
2019-04-10T03:20:22.454Z,8.21
2019-04-10T03:21:22.832Z,8.17
2019-04-10T03:22:22.875Z,8.07
2019-04-10T03:23:23.007Z,8.10
2019-04-10T03:24:23.174Z,8.12
2019-04-10T03:25:22.068Z,8.13
2019-04-10T03:26:22.068Z,8.04
2019-04-10T03:27:22.626Z,8.14
2019-04-10T03:28:22.963Z,8.13
2019-04-10T03:29:22.041Z,8.04
2019-04-10T03:30:23.380Z,8.03
2019-04-10T03:31:23.005Z,7.96
2019-04-10T03:32:23.642Z,7.88
2019-04-10T03:33:26.724Z,7.88
2019-04-10T03:34:22.922Z,7.91
2019-04-10T03:35:22.820Z,7.85
2019-04-10T03:36:21.964Z,7.86
2019-04-10T03:37:22.339Z,7.88
2019-04-10T03:38:21.947Z,7.84
2019-04-10T03:39:21.936Z,7.84
2019-04-10T03:40:21.925Z,7.73
2019-04-10T03:41:22.013Z,7.74
2019-04-10T03:42:21.903Z,7.73
2019-04-10T03:43:21.893Z,7.70
2019-04-10T03:44:22.854Z,7.71
2019-04-10T03:45:22.393Z,7.70
2019-04-10T03:46:21.866Z,7.63
2019-04-10T03:47:22.911Z,7.62
2019-04-10T03:48:22.973Z,7.54
2019-04-10T03:49:22.139Z,7.51
2019-04-10T03:50:21.827Z,7.50
2019-04-10T03:51:22.814Z,7.45
2019-04-10T03:52:21.803Z,7.42
2019-04-10T03:53:22.152Z,7.47
2019-04-10T03:54:22.812Z,7.39
2019-04-10T03:55:22.936Z,7.41
2019-04-10T03:56:21.774Z,7.27
2019-04-10T03:57:22.644Z,7.32
2019-04-10T03:58:21.751Z,7.33
2019-04-10T03:59:22.389Z,7.26
2019-04-10T04:00:22.448Z,7.26
2019-04-10T04:01:22.891Z,7.24
2019-04-10T04:02:21.899Z,7.21
2019-04-10T04:03:21.693Z,7.18
2019-04-10T04:04:21.720Z,7.26
2019-04-10T04:05:22.423Z,7.18
2019-04-10T04:06:21.783Z,7.21
2019-04-10T04:07:24.281Z,7.16
2019-04-10T04:08:21.674Z,7.08
2019-04-10T04:09:21.756Z,7.15
2019-04-10T04:10:21.628Z,7.07
2019-04-10T04:11:21.846Z,7.07
2019-04-10T04:12:22.337Z,7.09
2019-04-10T04:13:21.731Z,7.09
2019-04-10T04:14:22.058Z,7.01
2019-04-10T04:15:21.954Z,7.05
2019-04-10T04:16:22.615Z,7.04
2019-04-10T04:17:22.205Z,7.01
2019-04-10T04:18:21.546Z,6.97
2019-04-10T04:19:22.054Z,7.01
2019-04-10T04:20:21.521Z,6.93
2019-04-10T04:21:21.712Z,6.90
2019-04-10T04:22:21.504Z,6.87
2019-04-10T04:23:21.622Z,6.91
2019-04-10T04:24:23.598Z,6.83
2019-04-10T04:25:21.906Z,6.87
2019-04-10T04:26:21.461Z,6.91
2019-04-10T04:27:21.680Z,6.93
2019-04-10T04:28:21.453Z,6.93
2019-04-10T04:29:22.587Z,6.83
2019-04-10T04:30:22.261Z,6.90
2019-04-10T04:31:21.413Z,6.90
2019-04-10T04:32:21.756Z,6.89
2019-04-10T04:33:21.386Z,6.86
2019-04-10T04:34:21.380Z,6.91
2019-04-10T04:35:22.249Z,6.81
2019-04-10T04:36:21.409Z,6.81
2019-04-10T04:37:21.354Z,6.73
2019-04-10T04:38:21.338Z,6.90
2019-04-10T04:39:26.391Z,6.82
2019-04-10T04:40:21.724Z,6.69
2019-04-10T04:41:21.312Z,6.71
2019-04-10T04:42:22.293Z,6.73
2019-04-10T04:43:21.948Z,6.75
2019-04-10T04:44:22.209Z,6.76
2019-04-10T04:45:21.574Z,6.79
2019-04-10T04:46:21.252Z,6.68
2019-04-10T04:47:22.275Z,6.73
2019-04-10T04:48:21.958Z,6.69
2019-04-10T04:49:21.225Z,6.73
2019-04-10T04:50:21.218Z,6.58
2019-04-10T04:51:21.961Z,6.60
2019-04-10T04:52:21.194Z,6.63
2019-04-10T04:53:21.183Z,6.57
2019-04-10T04:54:21.366Z,6.58
2019-04-10T04:55:21.841Z,6.69
2019-04-10T04:56:21.986Z,6.58
2019-04-10T04:57:21.139Z,6.60
2019-04-10T04:58:22.211Z,6.65
2019-04-10T04:59:21.118Z,6.63
2019-04-10T05:00:21.530Z,6.63
2019-04-10T05:01:21.129Z,6.57
2019-04-10T05:02:21.948Z,6.64
2019-04-10T05:03:21.087Z,6.60
2019-04-10T05:04:21.064Z,6.69
2019-04-10T05:05:21.054Z,6.60
2019-04-10T05:06:22.179Z,6.61
2019-04-10T05:07:21.042Z,6.64
2019-04-10T05:08:21.811Z,6.63
2019-04-10T05:09:29.769Z,6.72
2019-04-10T05:10:21.005Z,6.69
2019-04-10T05:11:20.995Z,6.60
2019-04-10T05:12:20.991Z,6.58
2019-04-10T05:13:21.950Z,6.60
2019-04-10T05:14:21.686Z,6.73
2019-04-10T05:15:20.954Z,6.72
2019-04-10T05:16:20.942Z,6.72
2019-04-10T05:17:22.069Z,6.72
2019-04-10T05:18:21.238Z,6.75
2019-04-10T05:19:21.131Z,6.76
2019-04-10T05:20:20.903Z,6.72
2019-04-10T05:21:21.314Z,6.78
2019-04-10T05:22:20.889Z,6.68
2019-04-10T05:23:20.873Z,6.94
2019-04-10T05:24:21.927Z,6.90
2019-04-10T05:25:21.090Z,6.99
2019-04-10T05:26:20.877Z,7.12
2019-04-10T05:27:20.836Z,7.50
2019-04-10T05:28:20.818Z,7.91
2019-04-10T05:29:21.654Z,8.14
2019-04-10T05:30:20.801Z,8.40
2019-04-10T05:31:21.471Z,8.65
2019-04-10T05:32:21.493Z,8.91
2019-04-10T05:33:20.769Z,9.31
2019-04-10T05:34:21.891Z,9.42
2019-04-10T05:35:20.751Z,9.37
2019-04-10T05:36:21.590Z,9.41
2019-04-10T05:37:21.277Z,9.68
2019-04-10T05:38:20.884Z,9.40
2019-04-10T05:39:20.706Z,9.71
2019-04-10T05:40:20.737Z,9.95
2019-04-10T05:41:21.706Z,10.09
2019-04-10T05:42:20.716Z,10.31
2019-04-10T05:43:20.677Z,10.62
2019-04-10T05:44:20.668Z,10.90
2019-04-10T05:45:21.237Z,10.99
2019-04-10T05:46:21.599Z,11.16
2019-04-10T05:47:21.434Z,11.11
2019-04-10T05:48:22.438Z,11.30
2019-04-10T05:49:20.762Z,11.60
2019-04-10T05:50:21.561Z,11.67
2019-04-10T05:51:21.304Z,11.24
2019-04-10T05:52:20.606Z,11.24
2019-04-10T05:53:20.600Z,11.54
2019-04-10T05:54:20.590Z,11.90
2019-04-10T05:55:20.583Z,11.90
2019-04-10T05:56:20.742Z,12.05
2019-04-10T05:57:20.567Z,12.33
2019-04-10T05:58:21.632Z,12.41
2019-04-10T05:59:21.726Z,12.73
2019-04-10T06:00:20.865Z,12.76
2019-04-10T06:01:31.425Z,13.10
2019-04-10T06:02:20.535Z,13.54
2019-04-10T06:03:20.741Z,13.87
2019-04-10T06:04:21.026Z,13.41
2019-04-10T06:05:20.522Z,13.17
2019-04-10T06:06:20.541Z,13.39
2019-04-10T06:07:21.126Z,13.17
2019-04-10T06:08:21.509Z,12.95
2019-04-10T06:09:20.628Z,12.69
2019-04-10T06:10:21.593Z,12.98
2019-04-10T06:11:20.628Z,13.27
2019-04-10T06:12:20.507Z,13.86
2019-04-10T06:13:20.480Z,14.42
2019-04-10T06:14:20.469Z,14.34
2019-04-10T06:15:21.103Z,14.20
2019-04-10T06:16:20.552Z,14.71
2019-04-10T06:17:20.684Z,14.95
2019-04-10T06:18:20.781Z,14.87
2019-04-10T06:19:20.453Z,15.00
2019-04-10T06:20:20.938Z,14.90
2019-04-10T06:21:21.041Z,14.57
2019-04-10T06:22:20.798Z,14.79
2019-04-10T06:23:20.436Z,15.13
2019-04-10T06:24:20.487Z,15.30
2019-04-10T06:25:23.585Z,15.20
2019-04-10T06:26:21.751Z,15.19
2019-04-10T06:27:20.582Z,15.19
2019-04-10T06:28:21.322Z,15.46
2019-04-10T06:29:21.117Z,15.49
2019-04-10T06:30:20.583Z,15.62
2019-04-10T06:31:20.728Z,15.53
2019-04-10T06:32:21.327Z,15.66
2019-04-10T06:33:20.400Z,15.38
2019-04-10T06:34:20.580Z,15.85
2019-04-10T06:35:20.401Z,16.08
2019-04-10T06:36:21.470Z,16.30
2019-04-10T06:37:20.401Z,15.85
2019-04-10T06:38:21.009Z,15.62
2019-04-10T06:39:20.560Z,15.73
2019-04-10T06:40:23.838Z,15.60
2019-04-10T06:41:20.385Z,15.84
2019-04-10T06:42:20.469Z,15.59
2019-04-10T06:43:20.992Z,15.55
2019-04-10T06:44:21.658Z,15.70
2019-04-10T06:45:20.379Z,16.23
2019-04-10T06:46:20.375Z,16.34
2019-04-10T06:47:20.381Z,16.50
2019-04-10T06:48:20.377Z,16.80
2019-04-10T06:49:20.663Z,16.92
2019-04-10T06:50:21.079Z,16.78
2019-04-10T06:51:21.602Z,16.41
2019-04-10T06:52:20.700Z,16.01
2019-04-10T06:53:20.581Z,15.62
2019-04-10T06:54:20.560Z,15.56
2019-04-10T06:55:21.529Z,16.08
2019-04-10T06:56:20.881Z,16.25
2019-04-10T06:57:20.830Z,16.06
2019-04-10T06:58:20.366Z,15.48
2019-04-10T06:59:21.240Z,15.55
2019-04-10T07:00:21.388Z,15.60
2019-04-10T07:01:21.495Z,15.56
2019-04-10T07:02:27.089Z,15.20
2019-04-10T07:03:21.135Z,15.34
2019-04-10T07:04:23.843Z,15.64
2019-04-10T07:05:20.364Z,15.59
2019-04-10T07:06:22.334Z,15.60
2019-04-10T07:07:23.789Z,15.34
2019-04-10T07:08:23.672Z,15.43
2019-04-10T07:09:21.361Z,15.31
2019-04-10T07:10:28.609Z,15.58
2019-04-10T07:11:22.108Z,16.29
2019-04-10T07:12:22.441Z,16.42
2019-04-10T07:13:20.361Z,16.77
2019-04-10T07:14:20.522Z,17.22
2019-04-10T07:15:23.652Z,17.12
2019-04-10T07:16:20.366Z,17.06
2019-04-10T07:17:20.360Z,17.65
2019-04-10T07:18:21.756Z,17.74
2019-04-10T07:19:20.356Z,18.34
2019-04-10T07:20:21.265Z,18.56
2019-04-10T07:21:20.361Z,18.25
2019-04-10T07:22:20.748Z,18.46
2019-04-10T07:23:26.787Z,18.32
2019-04-10T07:24:20.808Z,18.19
2019-04-10T07:25:20.366Z,18.62
2019-04-10T07:26:30.969Z,18.69
2019-04-10T07:27:21.734Z,18.26
2019-04-10T07:28:21.452Z,17.53
2019-04-10T07:29:26.183Z,18.01
2019-04-10T07:30:24.153Z,18.35
2019-04-10T07:31:21.380Z,18.87
2019-04-10T07:32:21.507Z,19.01
2019-04-10T07:33:21.075Z,18.56
2019-04-10T07:34:22.028Z,18.26
2019-04-10T07:35:21.878Z,18.82
2019-04-10T07:36:20.419Z,19.05
2019-04-10T07:37:23.773Z,18.68
2019-04-10T07:38:21.361Z,18.50
2019-04-10T07:39:21.416Z,18.01
2019-04-10T07:40:20.645Z,18.09
2019-04-10T07:41:24.027Z,18.65
2019-04-10T07:42:30.358Z,18.21
2019-04-10T07:43:24.499Z,18.02
2019-04-10T07:44:20.391Z,17.76
2019-04-10T07:45:20.392Z,17.91
2019-04-10T07:46:20.398Z,18.21
2019-04-10T07:47:21.016Z,18.66
2019-04-10T07:48:20.545Z,19.07
2019-04-10T07:49:21.175Z,18.90
2019-04-10T07:50:20.609Z,18.54
2019-04-10T07:51:21.131Z,18.68
2019-04-10T07:52:22.307Z,19.10
2019-04-10T07:53:20.420Z,18.64
2019-04-10T07:54:21.301Z,18.62
2019-04-10T07:55:21.101Z,18.97
2019-04-10T07:56:20.919Z,19.61
2019-04-10T07:57:20.424Z,20.10
2019-04-10T07:58:21.437Z,19.89
2019-04-10T07:59:20.609Z,20.48
2019-04-10T08:00:20.438Z,20.66
2019-04-10T08:01:20.443Z,20.48
2019-04-10T08:02:21.169Z,21.30
2019-04-10T08:03:20.850Z,21.19
2019-04-10T08:04:20.583Z,21.05
2019-04-10T08:05:20.961Z,21.68
2019-04-10T08:06:20.460Z,21.83
2019-04-10T08:07:29.453Z,21.99
2019-04-10T08:08:21.434Z,21.05
2019-04-10T08:09:20.960Z,21.28
2019-04-10T08:10:20.475Z,21.06
2019-04-10T08:11:20.476Z,21.74
2019-04-10T08:12:21.182Z,21.68
2019-04-10T08:13:20.490Z,21.77
2019-04-10T08:14:21.680Z,20.51
2019-04-10T08:15:20.987Z,20.51
2019-04-10T08:16:21.068Z,20.61
2019-04-10T08:17:20.504Z,20.91
2019-04-10T08:18:21.122Z,21.37
2019-04-10T08:19:20.753Z,21.15
2019-04-10T08:20:20.525Z,21.16
2019-04-10T08:21:20.529Z,20.44
2019-04-10T08:22:20.530Z,20.54
2019-04-10T08:23:21.742Z,20.96
2019-04-10T08:24:20.545Z,21.56
2019-04-10T08:25:20.603Z,22.23
2019-04-10T08:26:21.381Z,22.86
2019-04-10T08:27:21.352Z,21.89
2019-04-10T08:28:20.559Z,21.58
2019-04-10T08:29:21.737Z,21.43
2019-04-10T08:30:20.573Z,20.82
2019-04-10T08:31:22.217Z,21.11
2019-04-10T08:32:21.597Z,21.40
2019-04-10T08:33:21.730Z,21.99
2019-04-10T08:34:21.578Z,22.21
2019-04-10T08:35:20.948Z,21.98
2019-04-10T08:36:21.547Z,21.96
2019-04-10T08:37:20.757Z,21.64
2019-04-10T08:38:21.719Z,21.56
2019-04-10T08:39:32.056Z,22.11
2019-04-10T08:40:21.147Z,21.74
2019-04-10T08:41:21.299Z,22.08
2019-04-10T08:42:20.644Z,22.05
2019-04-10T08:43:20.653Z,22.14
2019-04-10T08:44:20.676Z,21.96
2019-04-10T08:45:21.058Z,21.05
2019-04-10T08:46:21.814Z,21.74
2019-04-10T08:47:20.685Z,21.73
2019-04-10T08:48:21.881Z,21.98
2019-04-10T08:49:21.391Z,21.26
2019-04-10T08:50:21.751Z,20.90
2019-04-10T08:51:21.442Z,20.93
2019-04-10T08:52:20.717Z,21.55
2019-04-10T08:53:20.721Z,22.44
2019-04-10T08:54:20.726Z,23.16
2019-04-10T08:55:21.819Z,23.04
2019-04-10T08:56:20.745Z,23.19
2019-04-10T08:57:21.488Z,23.78
2019-04-10T08:58:20.907Z,22.91
2019-04-10T08:59:21.414Z,23.42
2019-04-10T09:00:20.769Z,23.86
2019-04-10T09:01:20.948Z,23.78
2019-04-10T09:02:20.787Z,23.47
2019-04-10T09:03:20.791Z,23.75
2019-04-10T09:04:20.809Z,22.81
2019-04-10T09:05:21.694Z,22.88
2019-04-10T09:06:20.816Z,23.71
2019-04-10T09:07:20.842Z,23.93
2019-04-10T09:08:21.113Z,23.56
2019-04-10T09:09:21.534Z,23.75
2019-04-10T09:10:20.848Z,23.45
2019-04-10T09:11:26.216Z,23.06
2019-04-10T09:12:21.903Z,23.97
2019-04-10T09:13:20.883Z,24.82
2019-04-10T09:14:21.157Z,25.56
2019-04-10T09:15:21.433Z,25.30
2019-04-10T09:16:20.897Z,25.08
2019-04-10T09:17:20.906Z,25.16
2019-04-10T09:18:21.108Z,24.82
2019-04-10T09:19:20.924Z,25.05
2019-04-10T09:20:20.930Z,24.26
2019-04-10T09:21:21.615Z,24.99
2019-04-10T09:22:20.945Z,25.02
2019-04-10T09:23:30.774Z,25.30
2019-04-10T09:24:21.644Z,25.59
2019-04-10T09:25:20.974Z,25.74
2019-04-10T09:26:20.980Z,25.85
2019-04-10T09:27:21.317Z,26.44
2019-04-10T09:28:21.006Z,26.35
2019-04-10T09:29:23.035Z,25.20
2019-04-10T09:30:21.026Z,25.38
2019-04-10T09:31:21.773Z,25.42
2019-04-10T09:32:22.195Z,25.75
2019-04-10T09:33:24.298Z,25.14
2019-04-10T09:34:21.061Z,25.56
2019-04-10T09:35:21.072Z,25.63
2019-04-10T09:36:21.488Z,25.14
2019-04-10T09:37:22.054Z,24.48
2019-04-10T09:38:21.108Z,24.14
2019-04-10T09:39:21.278Z,24.46
2019-04-10T09:40:22.354Z,23.35
2019-04-10T09:41:21.613Z,23.39
2019-04-10T09:42:21.561Z,23.69
2019-04-10T09:43:21.157Z,22.94
2019-04-10T09:44:21.163Z,23.94
2019-04-10T09:45:22.001Z,23.44
2019-04-10T09:46:21.376Z,23.16
2019-04-10T09:47:21.194Z,21.89
2019-04-10T09:48:22.206Z,21.85
2019-04-10T09:49:31.832Z,22.49
2019-04-10T09:50:21.421Z,22.78
2019-04-10T09:51:21.503Z,23.47
2019-04-10T09:52:21.745Z,23.39
2019-04-10T09:53:21.251Z,22.93
2019-04-10T09:54:21.794Z,23.97
2019-04-10T09:55:22.239Z,24.87
2019-04-10T09:56:21.415Z,24.74
2019-04-10T09:57:22.399Z,24.30
2019-04-10T09:58:21.883Z,25.34
2019-04-10T09:59:31.239Z,25.83
2019-04-10T10:00:21.425Z,26.57
2019-04-10T10:01:22.064Z,25.59
2019-04-10T10:02:21.341Z,25.12
2019-04-10T10:03:21.351Z,25.26
2019-04-10T10:04:21.599Z,24.84
2019-04-10T10:05:22.342Z,24.33
2019-04-10T10:06:27.057Z,24.05
2019-04-10T10:07:21.387Z,23.69
2019-04-10T10:08:22.546Z,23.38
2019-04-10T10:09:21.719Z,23.97
2019-04-10T10:10:22.618Z,24.30
2019-04-10T10:11:22.204Z,24.61
2019-04-10T10:12:21.440Z,25.08
2019-04-10T10:13:21.464Z,25.63
2019-04-10T10:14:21.463Z,25.39
2019-04-10T10:15:21.474Z,25.54
2019-04-10T10:16:21.494Z,24.70
2019-04-10T10:17:22.424Z,24.39
2019-04-10T10:18:21.494Z,23.35
2019-04-10T10:19:21.838Z,22.70
2019-04-10T10:20:21.792Z,21.42
2019-04-10T10:21:21.529Z,21.36
2019-04-10T10:22:21.538Z,20.79
2019-04-10T10:23:22.030Z,21.06
2019-04-10T10:24:22.454Z,20.46
2019-04-10T10:25:21.653Z,19.89
2019-04-10T10:26:21.836Z,20.35
2019-04-10T10:27:22.159Z,20.50
2019-04-10T10:28:22.792Z,19.01
2019-04-10T10:29:21.833Z,20.00
2019-04-10T10:30:21.607Z,20.78
2019-04-10T10:31:22.171Z,20.91
2019-04-10T10:32:21.625Z,21.82
2019-04-10T10:33:21.690Z,22.20
2019-04-10T10:34:22.593Z,22.86
2019-04-10T10:35:21.644Z,23.18
2019-04-10T10:36:22.188Z,22.30
2019-04-10T10:37:22.159Z,22.19
2019-04-10T10:38:21.660Z,22.44
2019-04-10T10:39:21.669Z,22.52
2019-04-10T10:40:21.680Z,22.49
2019-04-10T10:41:22.236Z,22.74
2019-04-10T10:42:21.697Z,22.17
2019-04-10T10:43:22.554Z,20.69
2019-04-10T10:44:21.947Z,20.76
2019-04-10T10:45:22.778Z,20.76
2019-04-10T10:46:21.726Z,21.24
2019-04-10T10:47:22.261Z,21.30
2019-04-10T10:48:21.940Z,21.67
2019-04-10T10:49:21.744Z,21.37
2019-04-10T10:50:22.244Z,21.30
2019-04-10T10:51:22.579Z,20.34
2019-04-10T10:52:21.768Z,20.15
2019-04-10T10:53:21.999Z,20.93
2019-04-10T10:54:23.021Z,21.64
2019-04-10T10:55:21.790Z,21.91
2019-04-10T10:56:22.382Z,21.61
2019-04-10T10:57:22.763Z,22.11
2019-04-10T10:58:21.898Z,22.21
2019-04-10T10:59:21.879Z,22.79
2019-04-10T11:00:22.999Z,22.79
2019-04-10T11:01:22.110Z,21.79
2019-04-10T11:02:21.828Z,21.45
2019-04-10T11:03:22.454Z,21.91
2019-04-10T11:04:21.848Z,22.08
2019-04-10T11:05:21.853Z,22.14
2019-04-10T11:06:22.676Z,22.23
2019-04-10T11:07:22.744Z,22.63
2019-04-10T11:08:22.065Z,22.60
2019-04-10T11:09:22.052Z,21.70
2019-04-10T11:10:24.087Z,21.45
2019-04-10T11:11:22.604Z,21.53
2019-04-10T11:12:22.037Z,21.70
2019-04-10T11:13:22.539Z,21.75
2019-04-10T11:14:21.914Z,22.24
2019-04-10T11:15:21.925Z,22.08
2019-04-10T11:16:23.199Z,21.31
2019-04-10T11:17:22.236Z,20.66
2019-04-10T11:18:22.218Z,20.34
2019-04-10T11:19:21.947Z,19.79
2019-04-10T11:20:21.952Z,20.10
2019-04-10T11:21:22.845Z,20.42
2019-04-10T11:22:24.000Z,20.48
2019-04-10T11:23:22.233Z,20.48
2019-04-10T11:24:22.831Z,20.04
2019-04-10T11:25:22.191Z,19.76
2019-04-10T11:26:24.088Z,19.82
2019-04-10T11:27:22.917Z,19.27
2019-04-10T11:28:24.012Z,19.09
2019-04-10T11:29:22.186Z,18.96
2019-04-10T11:30:22.496Z,18.64
2019-04-10T11:31:23.803Z,18.64
2019-04-10T11:32:22.183Z,18.66
2019-04-10T11:33:22.369Z,18.47
2019-04-10T11:34:22.623Z,18.26
2019-04-10T11:35:24.140Z,17.84
2019-04-10T11:36:22.040Z,17.40
2019-04-10T11:37:31.756Z,17.12
2019-04-10T11:38:22.049Z,16.63
2019-04-10T11:39:26.101Z,16.63
2019-04-10T11:40:23.534Z,16.81
2019-04-10T11:41:23.401Z,16.65
2019-04-10T11:42:22.633Z,16.32
2019-04-10T11:43:24.392Z,16.37
2019-04-10T11:44:22.057Z,16.66
2019-04-10T11:45:23.015Z,16.72
2019-04-10T11:46:22.715Z,16.70
2019-04-10T11:47:23.621Z,16.63
2019-04-10T11:48:22.979Z,16.78
2019-04-10T11:49:23.053Z,16.77
2019-04-10T11:50:24.701Z,16.52
2019-04-10T11:51:23.522Z,16.45
2019-04-10T11:52:32.177Z,16.54
2019-04-10T11:53:23.855Z,16.57
2019-04-10T11:54:26.587Z,16.22
2019-04-10T11:55:27.039Z,16.03
2019-04-10T11:56:23.617Z,16.01
2019-04-10T11:57:22.870Z,15.88
2019-04-10T11:58:24.375Z,15.78
2019-04-10T11:59:24.182Z,15.88
2019-04-10T12:00:23.690Z,16.07
2019-04-10T12:01:24.556Z,16.14
2019-04-10T12:02:25.020Z,16.07
2019-04-10T12:03:22.668Z,15.62
2019-04-10T12:04:23.253Z,15.46
2019-04-10T12:05:22.629Z,15.41
2019-04-10T12:06:25.016Z,15.58
2019-04-10T12:07:53.181Z,15.31
2019-04-10T12:08:45.274Z,15.35
2019-04-10T12:10:06.497Z,15.43
2019-04-10T12:11:23.045Z,15.60
2019-04-10T12:12:22.025Z,15.78
2019-04-10T12:13:22.076Z,15.91
2019-04-10T12:14:22.010Z,15.88
2019-04-10T12:15:22.005Z,15.76
2019-04-10T12:16:23.060Z,15.85
2019-04-10T12:17:22.175Z,15.77
2019-04-10T12:18:22.561Z,15.77
2019-04-10T12:19:24.069Z,15.70
2019-04-10T12:20:21.997Z,15.77
2019-04-10T12:21:21.992Z,15.92
2019-04-10T12:22:21.991Z,15.74
2019-04-10T12:23:23.114Z,15.76
2019-04-10T12:24:21.981Z,15.66
2019-04-10T12:25:22.925Z,15.43
2019-04-10T12:26:21.975Z,15.38
2019-04-10T12:27:23.017Z,15.51
2019-04-10T12:28:22.176Z,15.58
2019-04-10T12:29:22.577Z,15.58
2019-04-10T12:30:21.964Z,15.70
2019-04-10T12:31:21.979Z,15.60
2019-04-10T12:32:23.008Z,15.67
2019-04-10T12:33:21.948Z,15.56
2019-04-10T12:34:22.448Z,15.34
2019-04-10T12:35:22.630Z,15.34
2019-04-10T12:36:22.545Z,15.23
2019-04-10T12:37:21.945Z,15.28
2019-04-10T12:38:21.944Z,15.49
2019-04-10T12:39:22.703Z,15.51
2019-04-10T12:40:21.949Z,15.40
2019-04-10T12:41:21.933Z,15.41
2019-04-10T12:42:21.940Z,15.28
2019-04-10T12:43:23.074Z,15.22
2019-04-10T12:44:21.911Z,15.12
2019-04-10T12:45:22.236Z,15.04
2019-04-10T12:46:21.909Z,14.90
2019-04-10T12:47:21.899Z,14.71
2019-04-10T12:48:23.062Z,14.63
2019-04-10T12:49:21.900Z,14.67
2019-04-10T12:50:22.582Z,14.87
2019-04-10T12:51:21.894Z,15.03
2019-04-10T12:52:22.763Z,15.16
2019-04-10T12:53:21.879Z,15.28
2019-04-10T12:54:21.882Z,15.33
2019-04-10T12:55:21.877Z,15.48
2019-04-10T12:56:22.038Z,15.37
2019-04-10T12:57:21.864Z,15.40
2019-04-10T12:58:22.486Z,15.51
2019-04-10T12:59:21.852Z,15.52
2019-04-10T13:00:21.856Z,15.37
2019-04-10T13:01:22.699Z,15.27
2019-04-10T13:02:22.582Z,15.33